createdAt,value
2023-05-01T06:25:31.130Z,3.60
2023-05-01T06:27:58.148Z,4.28
2023-05-01T06:30:25.354Z,3.90
2023-05-01T06:32:52.456Z,3.83
2023-05-01T06:35:19.856Z,4.30
2023-05-01T06:37:47.025Z,3.80
2023-05-01T06:40:14.140Z,4.50
2023-05-01T06:42:42.165Z,3.97
2023-05-01T06:45:09.778Z,3.83
2023-05-01T06:47:37.025Z,3.60
2023-05-01T06:50:05.651Z,4.10
2023-05-01T06:52:33.128Z,3.30
2023-05-01T06:55:04.155Z,3.90
2023-05-01T06:57:31.213Z,3.73
2023-05-01T06:59:58.531Z,3.77
2023-05-01T07:02:26.085Z,4.10
2023-05-01T07:04:53.668Z,3.93
2023-05-01T07:07:20.765Z,3.57
2023-05-01T07:09:47.821Z,3.50
2023-05-01T07:12:14.940Z,3.87
2023-05-01T07:14:42.001Z,4.70
2023-05-01T07:17:09.338Z,4.23
2023-05-01T07:19:36.425Z,4.13
2023-05-01T07:22:04.784Z,3.70
2023-05-01T07:24:31.801Z,4.20
2023-05-01T07:27:00.052Z,4.90
2023-05-01T07:58:54.281Z,3.83
2023-05-01T08:01:21.291Z,4.43
2023-05-01T08:03:50.357Z,3.87
2023-05-01T08:06:18.162Z,4.40
2023-05-01T08:08:46.815Z,4.00
2023-05-01T08:13:49.328Z,4.20
2023-05-01T08:16:16.458Z,4.20
2023-05-01T08:18:43.618Z,3.95
2023-05-01T08:21:11.315Z,3.90
2023-05-01T08:23:39.209Z,4.13
2023-05-01T08:26:06.376Z,4.05
2023-05-01T08:28:35.849Z,4.13
2023-05-01T08:31:03.837Z,4.03
2023-05-01T08:33:30.893Z,4.13
2023-05-01T08:35:58.999Z,3.80
2023-05-01T08:38:26.312Z,3.60
2023-05-01T10:00:28.289Z,3.03
2023-05-01T10:02:55.629Z,3.40
2023-05-01T10:05:24.804Z,3.20
2023-05-01T10:08:03.857Z,3.10
2023-05-01T10:10:31.480Z,3.10
2023-05-01T10:13:14.952Z,2.63
2023-05-01T10:18:12.291Z,3.17
2023-05-01T10:20:39.439Z,3.57
2023-05-01T10:23:06.676Z,3.10
2023-05-01T10:25:34.048Z,3.30
2023-05-01T10:28:04.851Z,3.70
2023-05-01T10:30:32.504Z,3.07
2023-05-01T10:33:00.204Z,2.73
2023-05-01T10:35:33.736Z,3.13
2023-05-01T10:38:09.458Z,3.03
2023-05-01T10:40:39.550Z,3.20
2023-05-01T10:43:28.961Z,2.80
2023-05-01T10:46:27.004Z,3.03
2023-05-01T10:48:54.706Z,3.07
2023-05-01T10:51:27.564Z,3.40
2023-05-01T10:54:14.030Z,2.90
2023-05-01T10:56:43.307Z,2.57
2023-05-01T10:59:11.620Z,2.33
2023-05-01T11:01:40.671Z,2.50
2023-05-01T11:04:24.590Z,2.50
2023-05-01T11:07:10.944Z,2.13
2023-05-01T11:09:59.080Z,2.30
2023-05-01T11:12:51.822Z,2.40
2023-05-01T11:15:32.455Z,2.80
2023-05-01T11:18:03.991Z,2.45
2023-05-01T11:20:36.939Z,2.60
2023-05-01T11:23:05.146Z,2.47
2023-05-01T11:25:33.169Z,2.00
2023-05-01T11:28:06.655Z,1.90
2023-05-01T11:30:40.668Z,1.83
2023-05-01T11:33:10.707Z,1.70
2023-05-01T11:35:38.705Z,1.80
2023-05-01T11:38:05.860Z,1.98
2023-05-01T11:40:35.109Z,1.98
2023-05-01T11:43:05.433Z,1.90
2023-05-01T11:45:34.047Z,1.98
2023-05-01T11:48:04.610Z,1.92
2023-05-01T11:50:35.709Z,1.63
2023-05-01T11:53:15.770Z,1.50
2023-05-01T11:55:43.545Z,1.83
2023-05-01T11:58:11.273Z,2.00
2023-05-01T12:00:43.882Z,1.80
2023-05-01T12:03:14.533Z,2.00
2023-05-01T12:05:45.463Z,2.20
2023-05-01T12:08:22.150Z,1.92
2023-05-01T12:10:53.017Z,2.45
2023-05-01T12:13:20.820Z,1.80
2023-05-01T12:15:53.930Z,1.80
2023-05-01T12:18:22.199Z,2.17
2023-05-01T12:20:52.964Z,1.80
2023-05-01T12:23:32.553Z,1.67
2023-05-01T12:26:00.014Z,1.75
2023-05-01T12:28:28.024Z,2.20
2023-05-01T12:31:05.225Z,2.38
2023-05-01T12:33:32.753Z,2.00
2023-05-01T12:36:13.200Z,2.10
2023-05-01T12:38:40.292Z,2.10
2023-05-01T12:41:09.519Z,1.95
2023-05-01T12:43:38.831Z,2.00
2023-05-01T12:46:07.739Z,2.00
2023-05-01T12:48:40.213Z,2.33
2023-05-01T12:51:07.775Z,2.20
2023-05-01T12:53:35.509Z,1.77
2023-05-01T12:56:03.476Z,2.17
2023-05-01T12:58:38.422Z,1.58
2023-05-01T13:01:06.841Z,1.80
2023-05-01T13:03:38.382Z,1.80
2023-05-01T13:06:07.449Z,1.50
2023-05-01T13:08:40.133Z,1.70
2023-05-01T13:11:16.596Z,1.63
2023-05-01T13:13:45.640Z,1.80
2023-05-01T13:16:16.305Z,1.77
2023-05-01T13:18:49.675Z,1.60
2023-05-01T13:21:21.095Z,1.88
2023-05-01T13:24:00.391Z,1.77
2023-05-01T13:26:31.153Z,2.10
2023-05-01T13:29:02.032Z,1.90
2023-05-01T13:31:30.537Z,1.25
2023-05-01T13:34:01.084Z,1.70
2023-05-01T13:36:34.684Z,2.00
2023-05-01T13:39:02.187Z,1.60
2023-05-01T13:41:30.667Z,1.83
2023-05-01T13:43:58.432Z,2.60
2023-05-01T13:46:29.277Z,3.08
2023-05-01T13:49:08.242Z,2.10
2023-05-01T13:51:37.912Z,1.85
2023-05-01T13:54:07.528Z,2.03
2023-05-01T13:56:39.595Z,1.73
2023-05-01T13:59:08.869Z,1.73
2023-05-01T14:01:46.167Z,1.42
2023-05-01T14:04:18.470Z,1.92
2023-05-01T14:06:48.493Z,2.58
2023-05-01T14:09:19.461Z,2.22
2023-05-01T14:14:20.939Z,2.72
2023-05-01T14:16:51.106Z,2.90
2023-05-01T14:19:18.810Z,3.25
2023-05-01T14:21:47.042Z,3.22
2023-05-01T14:24:18.206Z,3.20
2023-05-01T14:26:48.526Z,3.85
2023-05-01T14:29:28.124Z,4.50
2023-05-01T14:31:56.372Z,3.22
2023-05-01T14:34:24.385Z,3.85
2023-05-01T14:36:51.383Z,3.05
2023-05-01T14:39:19.249Z,3.13
2023-05-01T14:41:47.845Z,3.28
2023-05-01T14:44:18.690Z,3.20
2023-05-01T14:46:52.119Z,3.60
2023-05-01T14:49:22.988Z,3.50
2023-05-01T14:51:50.707Z,2.67
2023-05-01T14:54:18.930Z,3.00
2023-05-01T14:56:48.506Z,3.33
2023-05-01T14:59:16.406Z,3.13
2023-05-01T15:01:44.152Z,2.73
2023-05-01T15:04:12.745Z,3.27
2023-05-01T15:06:39.986Z,2.90
2023-05-01T15:09:07.031Z,2.40
2023-05-01T15:11:34.107Z,2.30
2023-05-01T15:14:01.152Z,2.63
2023-05-01T15:16:28.237Z,2.75
2023-05-01T15:18:55.429Z,2.88
2023-05-01T15:21:22.470Z,3.53
2023-05-01T15:23:49.558Z,2.80
2023-05-01T15:26:16.879Z,3.00
2023-05-01T15:28:43.831Z,3.75
2023-05-01T15:31:10.844Z,3.80
2023-05-01T15:33:37.906Z,3.58
2023-05-01T15:36:05.415Z,3.65
2023-05-01T15:38:32.378Z,3.60
2023-05-01T15:40:59.340Z,3.40
2023-05-01T15:43:26.382Z,3.50
2023-05-01T15:45:57.772Z,3.40
2023-05-01T15:48:25.493Z,3.30
2023-05-01T15:50:52.488Z,3.50
2023-05-01T15:53:21.095Z,3.67
2023-05-01T15:55:48.233Z,3.53
2023-05-01T15:58:16.042Z,3.92
2023-05-01T16:00:47.160Z,3.70
2023-05-01T16:03:15.619Z,3.63
2023-05-01T16:05:47.283Z,3.87
2023-05-01T16:08:15.266Z,3.30
2023-05-01T16:10:42.295Z,3.33
2023-05-01T16:13:09.317Z,3.17
2023-05-01T16:15:37.535Z,3.60
2023-05-01T16:18:05.388Z,3.20
2023-05-01T16:20:42.959Z,2.80
2023-05-01T16:23:11.327Z,2.80
2023-05-01T16:25:43.241Z,2.90
2023-05-01T16:28:10.560Z,2.30
2023-05-01T16:30:44.958Z,2.60
2023-05-01T16:33:19.641Z,2.80
2023-05-01T16:35:50.273Z,2.37
2023-05-01T16:38:18.832Z,2.60
2023-05-01T16:40:48.217Z,2.70
2023-05-01T16:43:16.205Z,2.42
2023-05-01T16:45:43.240Z,3.13
2023-05-01T16:48:10.437Z,2.67
2023-05-01T16:50:41.510Z,3.08
2023-05-01T16:53:08.532Z,3.03
2023-05-01T16:55:35.632Z,3.50
2023-05-01T16:58:02.697Z,2.88
2023-05-01T17:00:29.923Z,3.20
2023-05-01T17:02:59.030Z,3.00
2023-05-01T17:05:26.559Z,2.90
2023-05-01T17:07:54.041Z,2.90
2023-05-01T17:10:21.064Z,2.90
2023-05-01T17:12:48.555Z,2.90
2023-05-01T17:15:15.739Z,2.97
2023-05-01T17:17:42.921Z,2.70
2023-05-01T17:20:11.379Z,2.90
2023-05-01T17:22:38.479Z,2.63
2023-05-01T17:25:06.308Z,2.43
2023-05-01T17:27:33.567Z,2.47
2023-05-01T17:30:00.803Z,2.37
2023-05-01T17:32:36.445Z,2.67
2023-05-01T17:37:32.272Z,2.15
2023-05-01T17:39:59.522Z,1.80
2023-05-01T17:42:26.735Z,2.17
2023-05-01T17:44:53.747Z,2.07
2023-05-01T17:47:21.445Z,1.93
2023-05-01T17:49:49.117Z,2.10
2023-05-01T17:52:16.219Z,2.17
2023-05-01T17:54:43.383Z,2.00
2023-05-01T17:57:10.947Z,2.30
2023-05-01T17:59:38.068Z,1.90
2023-05-01T18:02:05.161Z,2.03
2023-05-01T18:04:32.434Z,2.00
2023-05-01T18:07:00.655Z,2.20
2023-05-01T18:09:27.748Z,2.30
2023-05-01T18:14:35.105Z,3.00
2023-05-01T18:17:02.434Z,2.57
2023-05-01T18:19:29.678Z,2.83
2023-05-01T18:21:57.233Z,2.60
2023-05-01T18:24:24.337Z,2.87
2023-05-01T18:36:54.847Z,3.08
2023-05-01T18:39:22.730Z,2.80
2023-05-01T18:41:51.229Z,3.03
2023-05-01T18:44:18.875Z,3.00
2023-05-01T18:46:45.989Z,3.40
2023-05-01T18:49:13.003Z,3.63
2023-05-01T18:51:40.485Z,3.85
2023-05-01T18:54:09.975Z,3.43
2023-05-01T18:56:37.345Z,3.57
2023-05-01T18:59:07.088Z,3.53
2023-05-01T19:01:34.271Z,3.33
2023-05-01T19:04:01.626Z,3.60
2023-05-01T19:06:29.435Z,5.10
2023-05-01T19:08:57.342Z,3.23
2023-05-01T19:11:26.458Z,2.70
2023-05-01T19:58:15.194Z,2.57
2023-05-01T20:00:42.412Z,2.80
2023-05-01T20:03:10.968Z,2.70
2023-05-01T20:05:38.129Z,3.50
2023-05-01T20:08:06.015Z,3.20
2023-05-01T20:10:33.652Z,2.80
2023-05-01T20:13:00.892Z,3.67
2023-05-01T20:15:28.386Z,3.60
2023-05-01T20:17:55.451Z,3.67
2023-05-01T20:20:22.643Z,3.03
2023-05-01T20:22:52.851Z,3.03
2023-05-01T20:25:19.959Z,3.63
2023-05-01T20:27:47.065Z,3.77
2023-05-01T20:30:14.136Z,5.60
2023-05-01T20:32:44.197Z,6.20
